createdAt,value
2023-05-25T00:01:01.984Z,2.22
2023-05-25T00:03:33.835Z,2.53
2023-05-25T00:06:02.385Z,2.62
2023-05-25T00:08:30.811Z,2.25
2023-05-25T00:10:58.918Z,2.22
2023-05-25T00:13:27.046Z,2.97
2023-05-25T00:15:55.706Z,3.20
2023-05-25T00:18:25.001Z,2.58
2023-05-25T00:20:55.121Z,2.95
2023-05-25T00:23:23.538Z,2.50
2023-05-25T00:25:51.570Z,2.50
2023-05-25T00:28:19.720Z,2.72
2023-05-25T00:30:48.156Z,2.78
2023-05-25T00:33:16.608Z,2.87
2023-05-25T00:35:45.409Z,2.50
2023-05-25T00:38:17.745Z,2.35
2023-05-25T00:40:46.685Z,2.47
2023-05-25T00:43:15.276Z,2.42
2023-05-25T00:45:43.582Z,2.28
2023-05-25T00:48:12.207Z,3.00
2023-05-25T00:50:42.351Z,2.80
2023-05-25T00:53:12.777Z,2.45
2023-05-25T00:55:46.751Z,2.08
2023-05-25T00:58:17.917Z,2.30
2023-05-25T01:00:49.481Z,2.55
2023-05-25T01:03:22.119Z,3.12
2023-05-25T01:05:55.266Z,3.40
2023-05-25T01:08:25.389Z,2.90
2023-05-25T01:10:58.206Z,2.65
2023-05-25T01:13:26.548Z,2.85
2023-05-25T01:15:55.380Z,2.85
2023-05-25T01:18:23.536Z,2.75
2023-05-25T01:20:59.882Z,2.42
2023-05-25T01:23:33.939Z,2.40
2023-05-25T01:26:06.792Z,2.65
2023-05-25T01:28:41.114Z,2.15
2023-05-25T01:31:10.325Z,2.45
2023-05-25T01:33:39.703Z,2.12
2023-05-25T01:36:09.174Z,2.80
2023-05-25T01:38:38.366Z,2.15
2023-05-25T01:41:06.727Z,2.92
2023-05-25T01:43:34.799Z,2.70
2023-05-25T01:46:12.227Z,2.72
2023-05-25T01:48:53.192Z,3.10
2023-05-25T01:51:32.350Z,3.20
2023-05-25T01:54:04.274Z,3.12
2023-05-25T01:56:34.621Z,3.03
2023-05-25T01:59:04.426Z,3.00
2023-05-25T02:01:36.574Z,2.85
2023-05-25T02:04:05.855Z,2.75
2023-05-25T02:06:36.883Z,3.05
2023-05-25T02:09:07.029Z,3.28
2023-05-25T02:11:35.027Z,2.83
2023-05-25T02:14:03.056Z,3.08
2023-05-25T02:16:31.623Z,2.95
2023-05-25T02:19:01.212Z,2.70
2023-05-25T02:21:29.416Z,2.90
2023-05-25T02:23:59.083Z,3.08
2023-05-25T02:26:27.569Z,3.15
2023-05-25T02:28:56.295Z,3.12
2023-05-25T02:31:24.299Z,3.05
2023-05-25T02:33:52.668Z,3.17
2023-05-25T02:36:21.187Z,3.20
2023-05-25T02:38:52.169Z,3.03
2023-05-25T02:41:22.338Z,2.62
2023-05-25T02:43:50.761Z,2.70
2023-05-25T02:46:19.036Z,3.25
2023-05-25T02:48:48.519Z,3.62
2023-05-25T02:51:16.637Z,2.58
2023-05-25T02:53:44.786Z,3.97
2023-05-25T02:56:13.288Z,3.12
2023-05-25T02:58:42.891Z,2.90
2023-05-25T03:01:18.298Z,3.05
2023-05-25T03:03:47.788Z,2.72
2023-05-25T03:06:16.070Z,2.75
2023-05-25T03:08:44.641Z,3.28
2023-05-25T03:11:12.925Z,3.12
2023-05-25T03:13:42.551Z,3.28
2023-05-25T03:16:11.013Z,4.03
2023-05-25T03:18:39.488Z,3.37
2023-05-25T03:21:08.065Z,3.60
2023-05-25T03:23:36.405Z,2.95
2023-05-25T03:26:05.038Z,2.87
2023-05-25T03:28:33.829Z,3.95
2023-05-25T03:31:05.220Z,2.95
2023-05-25T03:33:34.150Z,3.40
2023-05-25T03:36:02.562Z,2.75
2023-05-25T03:38:31.088Z,2.87
2023-05-25T03:41:06.309Z,3.60
2023-05-25T03:43:34.902Z,4.00
2023-05-25T03:46:06.411Z,3.40
2023-05-25T03:48:41.820Z,3.70
2023-05-25T03:51:11.696Z,2.65
2023-05-25T03:53:40.043Z,3.42
2023-05-25T03:56:09.178Z,3.47
2023-05-25T03:58:38.411Z,3.12
2023-05-25T04:01:10.402Z,2.90
2023-05-25T04:03:38.837Z,3.30
2023-05-25T04:06:07.343Z,3.42
2023-05-25T04:08:35.422Z,3.55
2023-05-25T04:11:05.646Z,2.90
2023-05-25T04:13:36.320Z,3.58
2023-05-25T04:16:09.557Z,3.12
2023-05-25T04:18:37.848Z,3.40
2023-05-25T04:21:06.254Z,3.78
2023-05-25T04:23:34.950Z,3.80
2023-05-25T04:26:06.046Z,3.83
2023-05-25T04:28:34.471Z,3.37
2023-05-25T04:31:02.622Z,3.28
2023-05-25T04:33:32.490Z,4.22
2023-05-25T04:36:01.022Z,3.78
2023-05-25T04:38:30.823Z,3.92
2023-05-25T04:41:01.985Z,4.05
2023-05-25T04:43:30.915Z,4.28
2023-05-25T04:45:59.770Z,4.50
2023-05-25T04:48:29.587Z,5.53
2023-05-25T04:51:03.019Z,5.47
2023-05-25T04:53:32.338Z,5.18
2023-05-25T04:56:00.666Z,5.00
2023-05-25T04:58:29.554Z,5.75
2023-05-25T05:00:57.870Z,5.85
2023-05-25T05:03:26.285Z,4.97
2023-05-25T05:05:54.589Z,6.25
2023-05-25T05:08:24.577Z,7.35
2023-05-25T05:10:53.240Z,5.68
2023-05-25T05:13:21.328Z,5.93
2023-05-25T05:15:49.404Z,6.97
2023-05-25T05:18:17.807Z,5.95
2023-05-25T05:20:46.099Z,6.18
2023-05-25T05:23:14.551Z,6.10
2023-05-25T05:25:44.507Z,5.87
2023-05-25T05:28:12.830Z,5.15
2023-05-25T05:30:41.059Z,6.37
2023-05-25T05:33:09.482Z,6.37
2023-05-25T05:35:37.900Z,6.72
2023-05-25T05:38:06.234Z,6.50
2023-05-25T05:40:34.806Z,6.05
2023-05-25T05:43:04.170Z,6.30
2023-05-25T05:45:32.263Z,7.10
2023-05-25T05:48:00.588Z,6.55
2023-05-25T05:50:29.237Z,6.37
2023-05-25T05:52:57.429Z,7.12
2023-05-25T05:55:26.419Z,7.68
2023-05-25T05:57:54.611Z,8.73
2023-05-25T06:00:24.710Z,9.10
2023-05-25T06:02:53.294Z,8.50
2023-05-25T06:05:21.888Z,7.78
2023-05-25T06:07:50.196Z,8.25
2023-05-25T06:10:20.045Z,8.68
2023-05-25T06:12:48.219Z,7.93
2023-05-25T06:15:17.538Z,7.93
2023-05-25T06:17:47.300Z,8.00
2023-05-25T06:20:16.674Z,8.05
2023-05-25T06:22:44.897Z,8.13
2023-05-25T06:25:14.070Z,7.65
2023-05-25T06:27:42.204Z,8.40
2023-05-25T06:30:10.959Z,7.55
2023-05-25T06:32:39.997Z,8.40
2023-05-25T06:35:13.336Z,7.40
2023-05-25T06:37:41.846Z,8.55
2023-05-25T06:40:11.379Z,7.68
2023-05-25T06:42:39.493Z,8.15
2023-05-25T06:45:11.103Z,8.55
2023-05-25T06:47:39.289Z,8.07
2023-05-25T06:50:10.474Z,9.02
2023-05-25T06:52:38.468Z,8.20
2023-05-25T06:55:08.508Z,8.52
2023-05-25T06:57:36.891Z,8.40
2023-05-25T07:00:11.601Z,7.85
2023-05-25T07:02:40.213Z,7.60
2023-05-25T07:05:10.171Z,8.35
2023-05-25T07:07:38.303Z,7.65
2023-05-25T07:10:08.007Z,7.57
2023-05-25T07:12:36.018Z,7.97
2023-05-25T07:15:04.181Z,7.40
2023-05-25T07:17:32.864Z,7.80
2023-05-25T07:20:01.035Z,8.40
2023-05-25T07:22:30.703Z,8.18
2023-05-25T07:24:59.023Z,7.80
2023-05-25T07:27:27.196Z,7.70
2023-05-25T07:29:55.307Z,8.43
2023-05-25T07:32:23.697Z,8.05
2023-05-25T07:34:51.780Z,8.10
2023-05-25T07:37:19.879Z,8.18
2023-05-25T07:39:50.558Z,7.95
2023-05-25T07:42:21.005Z,7.68
2023-05-25T07:44:49.810Z,8.45
2023-05-25T07:47:17.798Z,8.27
2023-05-25T07:49:45.969Z,8.10
2023-05-25T07:52:14.377Z,7.97
2023-05-25T07:54:42.422Z,8.63
2023-05-25T07:57:12.107Z,8.60
2023-05-25T07:59:40.442Z,8.07
2023-05-25T08:02:08.471Z,8.38
2023-05-25T08:04:37.509Z,7.65
2023-05-25T08:07:05.863Z,8.57
2023-05-25T08:09:33.959Z,8.45
2023-05-25T08:12:24.226Z,8.60
2023-05-25T08:14:51.871Z,8.10
2023-05-25T08:17:20.257Z,7.07
2023-05-25T08:19:48.476Z,7.90
2023-05-25T08:22:16.458Z,8.15
2023-05-25T08:24:44.725Z,7.45
2023-05-25T08:27:12.751Z,8.82
2023-05-25T08:29:40.811Z,8.20
2023-05-25T08:32:10.748Z,7.75
2023-05-25T08:34:38.731Z,7.70
2023-05-25T08:37:06.832Z,7.22
2023-05-25T08:39:35.178Z,6.53
2023-05-25T08:42:03.823Z,7.40
2023-05-25T08:44:32.309Z,7.30
2023-05-25T08:47:06.739Z,6.70
2023-05-25T08:49:39.603Z,7.18
2023-05-25T08:52:11.787Z,6.62
2023-05-25T08:54:44.175Z,6.68
2023-05-25T08:57:18.139Z,6.60
2023-05-25T08:59:52.978Z,5.35
2023-05-25T09:02:32.681Z,5.97
2023-05-25T09:05:02.848Z,6.35
2023-05-25T09:07:32.032Z,5.12
2023-05-25T09:10:01.915Z,5.82
2023-05-25T09:12:31.399Z,5.32
2023-05-25T09:14:59.708Z,5.10
2023-05-25T09:17:28.238Z,4.62
2023-05-25T09:19:56.591Z,5.10
2023-05-25T09:22:26.180Z,4.90
2023-05-25T09:24:55.084Z,4.60
2023-05-25T09:27:24.565Z,5.90
2023-05-25T09:29:53.162Z,5.80
2023-05-25T09:32:21.287Z,6.00
2023-05-25T09:34:49.828Z,6.57
2023-05-25T09:37:19.611Z,6.03
2023-05-25T09:39:53.192Z,5.37
2023-05-25T09:42:21.727Z,4.97
2023-05-25T09:44:50.596Z,4.75
2023-05-25T09:47:18.789Z,4.18
2023-05-25T09:49:49.434Z,3.97
2023-05-25T09:52:17.506Z,3.47
2023-05-25T09:54:46.998Z,3.58
2023-05-25T09:57:17.442Z,3.78
2023-05-25T09:59:46.186Z,3.53
2023-05-25T10:02:14.506Z,3.22
2023-05-25T10:04:43.009Z,3.25
2023-05-25T10:07:11.458Z,3.62
2023-05-25T10:09:42.278Z,2.87
2023-05-25T10:12:11.332Z,3.05
2023-05-25T10:14:43.955Z,2.70
2023-05-25T10:17:15.189Z,3.08
2023-05-25T10:19:51.598Z,3.03
2023-05-25T10:22:22.858Z,3.47
2023-05-25T10:24:56.690Z,3.00
2023-05-25T10:27:27.746Z,2.47
2023-05-25T10:30:00.904Z,3.35
2023-05-25T10:32:30.599Z,3.17
2023-05-25T10:35:00.539Z,3.70
2023-05-25T10:37:29.244Z,2.87
2023-05-25T10:39:58.978Z,3.20
2023-05-25T10:42:27.666Z,2.20
2023-05-25T10:44:56.530Z,2.35
2023-05-25T10:47:26.893Z,2.58
2023-05-25T10:49:58.089Z,2.28
2023-05-25T10:52:30.058Z,3.22
2023-05-25T10:54:59.320Z,3.20
2023-05-25T10:57:28.072Z,2.80
2023-05-25T11:00:04.424Z,2.62
2023-05-25T11:02:55.326Z,2.83
2023-05-25T11:05:40.284Z,2.70
2023-05-25T11:08:10.121Z,2.75
2023-05-25T11:10:59.895Z,2.87
2023-05-25T11:13:38.907Z,2.55
2023-05-25T11:16:35.913Z,2.87
2023-05-25T11:19:15.702Z,2.42
2023-05-25T11:21:45.490Z,2.62
2023-05-25T11:24:15.884Z,2.60
2023-05-25T11:26:58.016Z,2.20
2023-05-25T11:29:27.195Z,2.08
2023-05-25T11:31:56.724Z,2.45
2023-05-25T11:34:26.253Z,2.67
2023-05-25T11:36:57.751Z,3.25
2023-05-25T11:39:25.812Z,2.55
2023-05-25T11:41:57.054Z,2.50
2023-05-25T11:44:30.184Z,2.65
2023-05-25T11:47:01.741Z,2.75
2023-05-25T11:49:31.697Z,2.42
2023-05-25T11:51:59.898Z,2.58
2023-05-25T11:54:29.853Z,2.30
2023-05-25T11:56:59.895Z,2.08
2023-05-25T11:59:30.544Z,1.98
2023-05-25T12:02:02.046Z,2.72
2023-05-25T12:04:34.075Z,2.70
2023-05-25T12:07:06.279Z,2.92
2023-05-25T12:09:36.650Z,3.30
2023-05-25T12:12:05.371Z,2.60
2023-05-25T12:14:36.150Z,2.92
2023-05-25T12:17:04.939Z,2.90
2023-05-25T12:19:34.774Z,2.60
2023-05-25T12:22:03.845Z,2.72
2023-05-25T12:24:32.326Z,2.65
2023-05-25T12:27:02.377Z,2.80
2023-05-25T12:29:30.465Z,3.08
2023-05-25T12:32:03.584Z,2.30
2023-05-25T12:34:31.664Z,2.92
2023-05-25T12:37:01.612Z,3.28
2023-05-25T12:39:38.783Z,2.85
2023-05-25T12:42:15.233Z,2.70
2023-05-25T12:44:44.300Z,2.37
2023-05-25T12:47:14.392Z,2.35
2023-05-25T12:49:44.019Z,2.62
2023-05-25T12:52:33.166Z,2.35
2023-05-25T12:55:20.161Z,3.05
2023-05-25T12:57:52.456Z,2.42
2023-05-25T13:00:22.001Z,2.30
2023-05-25T13:02:50.964Z,2.67
2023-05-25T13:05:20.864Z,3.53
2023-05-25T13:07:50.880Z,2.20
2023-05-25T13:10:19.618Z,2.67
2023-05-25T13:12:48.460Z,2.40
2023-05-25T13:15:21.056Z,2.42
2023-05-25T13:17:50.486Z,2.75
2023-05-25T13:20:19.842Z,2.20
2023-05-25T13:22:50.694Z,2.70
2023-05-25T13:25:22.042Z,2.72
2023-05-25T13:27:51.946Z,2.72
2023-05-25T13:30:22.118Z,2.50
2023-05-25T13:32:51.916Z,2.70
2023-05-25T13:35:34.090Z,2.22
2023-05-25T13:38:03.603Z,2.58
2023-05-25T13:40:32.056Z,2.55
2023-05-25T13:43:00.175Z,2.80
2023-05-25T13:45:28.575Z,2.70
2023-05-25T13:47:56.915Z,2.55
2023-05-25T13:50:25.122Z,2.17
2023-05-25T13:52:53.188Z,2.58
2023-05-25T13:55:24.054Z,2.30
2023-05-25T13:57:52.906Z,3.05
2023-05-25T14:00:21.866Z,2.50
2023-05-25T14:02:51.904Z,2.37
2023-05-25T14:05:20.791Z,2.50
2023-05-25T14:07:49.351Z,2.55
2023-05-25T14:10:17.807Z,2.10
2023-05-25T14:12:47.901Z,2.65
2023-05-25T14:15:18.838Z,2.58
2023-05-25T14:17:47.459Z,2.25
2023-05-25T14:20:22.395Z,2.50
2023-05-25T14:22:50.684Z,2.75
2023-05-25T14:25:19.078Z,3.20
2023-05-25T14:27:48.484Z,3.00
2023-05-25T14:30:17.156Z,2.80
2023-05-25T14:32:45.318Z,2.55
2023-05-25T14:35:13.363Z,2.58
2023-05-25T14:37:42.222Z,2.75
2023-05-25T14:40:11.428Z,2.60
2023-05-25T14:42:39.444Z,2.22
2023-05-25T14:45:11.586Z,2.30
2023-05-25T14:47:40.797Z,2.80
2023-05-25T14:50:09.738Z,2.25
2023-05-25T14:52:37.880Z,2.28
2023-05-25T14:55:06.556Z,3.17
2023-05-25T14:57:34.821Z,2.80
2023-05-25T15:00:03.299Z,2.47
2023-05-25T15:02:33.118Z,2.40
2023-05-25T15:05:01.579Z,2.90
2023-05-25T15:07:29.676Z,2.53
2023-05-25T15:09:57.805Z,2.70
2023-05-25T15:12:26.035Z,2.45
2023-05-25T15:14:54.055Z,1.95
2023-05-25T15:17:22.024Z,2.80
2023-05-25T15:19:51.805Z,2.20
2023-05-25T15:22:19.915Z,2.50
2023-05-25T15:24:48.011Z,2.20
2023-05-25T15:27:16.256Z,2.78
2023-05-25T15:29:44.257Z,2.62
2023-05-25T15:32:13.740Z,2.80
2023-05-25T15:34:42.735Z,2.62
2023-05-25T15:37:13.155Z,2.45
2023-05-25T15:39:41.398Z,2.47
2023-05-25T15:42:09.456Z,2.70
2023-05-25T15:44:37.494Z,2.58
2023-05-25T15:47:06.633Z,2.58
2023-05-25T15:49:36.767Z,2.50
2023-05-25T15:52:06.573Z,2.62
2023-05-25T15:54:36.363Z,2.50
2023-05-25T15:57:04.635Z,2.55
2023-05-25T15:59:32.622Z,2.72
2023-05-25T16:02:01.004Z,2.67
2023-05-25T16:04:29.314Z,3.00
2023-05-25T16:06:58.497Z,3.03
2023-05-25T16:09:27.451Z,2.80
2023-05-25T16:11:57.090Z,2.20
2023-05-25T16:14:25.149Z,2.78
2023-05-25T16:16:53.263Z,2.58
2023-05-25T16:19:21.574Z,2.92
2023-05-25T16:21:49.729Z,2.47
2023-05-25T16:24:17.822Z,3.03
2023-05-25T16:26:46.081Z,2.67
2023-05-25T16:29:15.559Z,2.60
2023-05-25T16:31:43.577Z,2.72
2023-05-25T16:34:11.774Z,2.20
2023-05-25T16:36:39.752Z,2.33
2023-05-25T16:39:08.102Z,2.28
2023-05-25T16:41:36.414Z,2.42
2023-05-25T16:44:04.532Z,2.55
2023-05-25T16:46:34.129Z,2.03
2023-05-25T16:49:02.536Z,2.20
2023-05-25T16:51:30.727Z,2.05
2023-05-25T16:53:58.786Z,2.03
2023-05-25T16:56:27.223Z,2.37
2023-05-25T16:58:55.162Z,2.40
2023-05-25T17:01:23.227Z,2.37
2023-05-25T17:03:53.044Z,2.20
2023-05-25T17:06:21.163Z,2.00
2023-05-25T17:08:49.150Z,2.40
2023-05-25T17:11:17.518Z,2.12
2023-05-25T17:13:45.540Z,2.28
2023-05-25T17:16:13.586Z,1.90
2023-05-25T17:18:42.324Z,2.10
2023-05-25T17:21:11.928Z,1.67
2023-05-25T17:23:39.930Z,1.90
2023-05-25T17:26:08.202Z,1.70
2023-05-25T17:28:36.271Z,2.03
2023-05-25T17:31:04.397Z,1.90
2023-05-25T17:33:32.648Z,2.30
2023-05-25T17:36:00.813Z,1.70
2023-05-25T17:38:30.163Z,1.87
2023-05-25T17:40:58.581Z,2.10
2023-05-25T17:43:26.552Z,2.20
2023-05-25T17:45:54.699Z,2.10
2023-05-25T17:48:23.016Z,1.70
2023-05-25T17:50:51.006Z,1.92
2023-05-25T17:53:19.096Z,2.05
2023-05-25T17:55:48.897Z,2.33
2023-05-25T17:58:17.020Z,1.90
2023-05-25T18:00:45.137Z,1.85
2023-05-25T18:03:13.736Z,2.30
2023-05-25T18:05:41.902Z,2.25
2023-05-25T18:08:09.839Z,2.30
2023-05-25T18:10:38.211Z,2.65
2023-05-25T18:13:07.577Z,1.83
2023-05-25T18:15:35.629Z,2.83
2023-05-25T18:18:05.764Z,2.20
2023-05-25T18:20:34.573Z,2.45
2023-05-25T18:23:03.317Z,2.80
2023-05-25T18:25:31.600Z,2.47
2023-05-25T18:27:59.758Z,2.75
2023-05-25T18:30:29.240Z,3.15
2023-05-25T18:32:57.548Z,2.78
2023-05-25T18:35:25.693Z,2.53
2023-05-25T18:37:53.780Z,2.97
2023-05-25T18:40:22.157Z,2.97
2023-05-25T18:42:50.880Z,2.55
2023-05-25T18:45:18.932Z,2.62
2023-05-25T18:47:48.607Z,3.12
2023-05-25T18:50:17.062Z,2.90
2023-05-25T18:52:46.833Z,2.83
2023-05-25T18:55:15.485Z,2.80
2023-05-25T18:57:43.528Z,2.87
2023-05-25T19:00:13.073Z,2.65
2023-05-25T19:02:42.014Z,2.35
2023-05-25T19:05:12.258Z,2.80
2023-05-25T19:07:54.784Z,2.92
2023-05-25T19:10:27.583Z,2.42
2023-05-25T19:12:55.942Z,2.37
2023-05-25T19:15:24.065Z,2.75
2023-05-25T19:17:52.390Z,2.70
2023-05-25T19:20:21.948Z,2.87
2023-05-25T19:22:50.127Z,2.80
2023-05-25T19:25:18.475Z,3.50
2023-05-25T19:27:46.521Z,3.08
2023-05-25T19:30:15.872Z,2.78
2023-05-25T19:32:44.290Z,2.55
2023-05-25T19:35:12.691Z,2.55
2023-05-25T19:37:42.370Z,2.55
2023-05-25T19:40:11.242Z,2.53
2023-05-25T19:42:39.300Z,2.83
2023-05-25T19:45:07.886Z,3.10
2023-05-25T19:47:36.389Z,2.58
2023-05-25T19:50:04.985Z,2.80
2023-05-25T19:52:33.231Z,2.50
2023-05-25T19:55:02.841Z,2.60
2023-05-25T19:57:30.882Z,3.08
2023-05-25T19:59:58.905Z,2.95
2023-05-25T20:02:27.611Z,2.97
2023-05-25T20:04:56.041Z,2.95
2023-05-25T20:07:24.345Z,2.95
2023-05-25T20:09:52.493Z,2.67
2023-05-25T20:12:22.381Z,3.28
2023-05-25T20:14:50.496Z,3.65
2023-05-25T20:17:18.617Z,3.47
2023-05-25T20:19:46.816Z,2.85
2023-05-25T20:22:14.866Z,2.95
2023-05-25T20:24:42.941Z,2.47
2023-05-25T20:27:11.348Z,2.92
2023-05-25T20:29:40.733Z,2.72
2023-05-25T20:32:08.972Z,3.28
2023-05-25T20:34:37.395Z,2.70
2023-05-25T20:37:05.586Z,2.95
2023-05-25T20:39:33.754Z,2.97
2023-05-25T20:42:02.686Z,2.75
2023-05-25T20:44:31.870Z,2.75
2023-05-25T20:47:01.454Z,3.12
2023-05-25T20:49:29.903Z,2.83
2023-05-25T20:51:57.934Z,3.10
2023-05-25T20:54:26.245Z,2.97
2023-05-25T20:56:54.515Z,2.85
2023-05-25T20:59:23.480Z,2.90
2023-05-25T21:01:51.541Z,2.20
2023-05-25T21:04:21.681Z,2.78
2023-05-25T21:06:49.843Z,3.22
2023-05-25T21:09:17.972Z,2.60
2023-05-25T21:11:46.379Z,2.90
2023-05-25T21:14:14.519Z,2.83
2023-05-25T21:16:42.815Z,2.40
2023-05-25T21:19:11.509Z,2.53
2023-05-25T21:21:40.913Z,2.60
2023-05-25T21:24:09.004Z,2.62
2023-05-25T21:26:37.297Z,2.97
2023-05-25T21:29:05.375Z,2.67
2023-05-25T21:31:33.459Z,2.75
2023-05-25T21:34:01.925Z,3.05
2023-05-25T21:36:30.073Z,2.97
2023-05-25T21:38:59.438Z,2.47
2023-05-25T21:41:27.856Z,2.00
2023-05-25T21:43:55.938Z,2.60
2023-05-25T21:46:24.025Z,2.62
2023-05-25T21:48:52.408Z,2.45
2023-05-25T21:51:20.603Z,2.30
2023-05-25T21:53:51.885Z,2.70
2023-05-25T21:56:21.863Z,2.45
2023-05-25T21:58:49.962Z,2.83
2023-05-25T22:01:19.149Z,2.53
2023-05-25T22:03:47.872Z,2.35
2023-05-25T22:06:16.113Z,2.53
2023-05-25T22:08:44.268Z,2.50
2023-05-25T22:11:12.672Z,3.28
2023-05-25T22:13:42.235Z,2.65
2023-05-25T22:16:10.597Z,2.12
2023-05-25T22:18:38.844Z,3.00
2023-05-25T22:21:07.112Z,3.08
2023-05-25T22:23:35.222Z,2.53
2023-05-25T22:26:05.015Z,2.50
2023-05-25T22:28:33.032Z,2.58
2023-05-25T22:31:02.480Z,2.75
2023-05-25T22:33:31.189Z,2.83
2023-05-25T22:35:59.322Z,2.78
2023-05-25T22:38:27.261Z,2.95
2023-05-25T22:40:55.723Z,2.33
2023-05-25T22:43:23.746Z,2.65
2023-05-25T22:45:54.013Z,2.65
2023-05-25T22:48:23.806Z,3.12
2023-05-25T22:50:51.824Z,2.53
2023-05-25T22:53:20.111Z,2.28
2023-05-25T22:55:49.095Z,2.72
2023-05-25T22:58:17.401Z,2.72
2023-05-25T23:00:45.561Z,2.65
2023-05-25T23:03:14.199Z,2.85
2023-05-25T23:05:44.471Z,2.87
2023-05-25T23:08:12.582Z,2.70
2023-05-25T23:10:40.948Z,2.60
2023-05-25T23:13:09.016Z,2.97
2023-05-25T23:15:40.184Z,2.65
2023-05-25T23:18:08.661Z,3.35
2023-05-25T23:20:36.773Z,2.75
2023-05-25T23:23:06.137Z,2.90
2023-05-25T23:25:34.312Z,2.90
2023-05-25T23:28:02.795Z,2.83
2023-05-25T23:30:30.883Z,2.92
2023-05-25T23:33:00.046Z,3.28
2023-05-25T23:35:28.627Z,2.50
2023-05-25T23:37:57.726Z,2.75
2023-05-25T23:40:27.514Z,2.60
2023-05-25T23:42:55.803Z,2.87
2023-05-25T23:45:23.895Z,2.50
2023-05-25T23:47:52.314Z,2.35
2023-05-25T23:50:20.574Z,3.35
2023-05-25T23:52:48.819Z,3.05
2023-05-25T23:55:17.304Z,2.97
2023-05-25T23:57:47.042Z,2.62
